sensor_id;sensor_type;location;lat;lon;timestamp;P1;durP1;ratioP1;P2;durP2;ratioP2
75021;SDS011;63583;49.976;20.182;2023-12-28T00:01:22;23.17;;;9.93;;
75021;SDS011;63583;49.976;20.182;2023-12-28T00:03:49;19.80;;;8.90;;
75021;SDS011;63583;49.976;20.182;2023-12-28T00:06:15;22.13;;;10.07;;
75021;SDS011;63583;49.976;20.182;2023-12-28T00:08:42;22.33;;;10.23;;
75021;SDS011;63583;49.976;20.182;2023-12-28T00:11:08;21.80;;;10.77;;
75021;SDS011;63583;49.976;20.182;2023-12-28T00:13:34;20.13;;;10.38;;
75021;SDS011;63583;49.976;20.182;2023-12-28T00:16:02;18.17;;;9.30;;
75021;SDS011;63583;49.976;20.182;2023-12-28T00:18:29;18.88;;;9.55;;
75021;SDS011;63583;49.976;20.182;2023-12-28T00:20:55;22.10;;;10.10;;
75021;SDS011;63583;49.976;20.182;2023-12-28T00:23:21;23.95;;;8.82;;
75021;SDS011;63583;49.976;20.182;2023-12-28T00:25:47;17.48;;;8.13;;
75021;SDS011;63583;49.976;20.182;2023-12-28T00:28:13;14.23;;;7.30;;
75021;SDS011;63583;49.976;20.182;2023-12-28T00:30:39;15.93;;;7.57;;
75021;SDS011;63583;49.976;20.182;2023-12-28T00:33:04;14.38;;;7.55;;
75021;SDS011;63583;49.976;20.182;2023-12-28T00:35:30;15.55;;;8.07;;
75021;SDS011;63583;49.976;20.182;2023-12-28T00:37:56;17.30;;;7.40;;
75021;SDS011;63583;49.976;20.182;2023-12-28T00:40:22;15.50;;;8.05;;
75021;SDS011;63583;49.976;20.182;2023-12-28T00:42:48;19.13;;;7.68;;
75021;SDS011;63583;49.976;20.182;2023-12-28T00:45:14;13.73;;;6.65;;
75021;SDS011;63583;49.976;20.182;2023-12-28T00:47:40;16.38;;;7.20;;
75021;SDS011;63583;49.976;20.182;2023-12-28T00:50:09;18.05;;;7.50;;
75021;SDS011;63583;49.976;20.182;2023-12-28T00:52:40;16.02;;;8.20;;
75021;SDS011;63583;49.976;20.182;2023-12-28T00:55:06;16.50;;;8.45;;
75021;SDS011;63583;49.976;20.182;2023-12-28T00:57:33;18.00;;;7.90;;
75021;SDS011;63583;49.976;20.182;2023-12-28T00:59:59;13.15;;;6.60;;
75021;SDS011;63583;49.976;20.182;2023-12-28T01:02:26;14.60;;;7.03;;
75021;SDS011;63583;49.976;20.182;2023-12-28T01:04:52;13.68;;;6.72;;
75021;SDS011;63583;49.976;20.182;2023-12-28T01:07:18;15.65;;;6.47;;
75021;SDS011;63583;49.976;20.182;2023-12-28T01:09:43;13.60;;;6.03;;
75021;SDS011;63583;49.976;20.182;2023-12-28T01:12:09;13.20;;;5.90;;
75021;SDS011;63583;49.976;20.182;2023-12-28T01:14:36;11.00;;;5.63;;
75021;SDS011;63583;49.976;20.182;2023-12-28T01:17:02;14.45;;;5.50;;
75021;SDS011;63583;49.976;20.182;2023-12-28T01:19:28;15.10;;;6.38;;
75021;SDS011;63583;49.976;20.182;2023-12-28T01:21:54;14.65;;;6.50;;
75021;SDS011;63583;49.976;20.182;2023-12-28T01:24:20;11.63;;;5.95;;
75021;SDS011;63583;49.976;20.182;2023-12-28T01:26:46;12.73;;;5.60;;
75021;SDS011;63583;49.976;20.182;2023-12-28T01:29:11;12.65;;;5.68;;
75021;SDS011;63583;49.976;20.182;2023-12-28T01:31:38;10.73;;;5.38;;
75021;SDS011;63583;49.976;20.182;2023-12-28T01:34:04;11.88;;;6.10;;
75021;SDS011;63583;49.976;20.182;2023-12-28T01:36:30;13.13;;;5.97;;
75021;SDS011;63583;49.976;20.182;2023-12-28T01:38:56;13.13;;;6.10;;
75021;SDS011;63583;49.976;20.182;2023-12-28T01:41:22;13.85;;;6.32;;
75021;SDS011;63583;49.976;20.182;2023-12-28T01:43:48;11.50;;;5.65;;
75021;SDS011;63583;49.976;20.182;2023-12-28T01:46:15;14.95;;;6.50;;
75021;SDS011;63583;49.976;20.182;2023-12-28T01:48:43;12.95;;;6.50;;
75021;SDS011;63583;49.976;20.182;2023-12-28T01:51:12;13.13;;;5.68;;
75021;SDS011;63583;49.976;20.182;2023-12-28T01:53:40;11.15;;;6.10;;
75021;SDS011;63583;49.976;20.182;2023-12-28T01:56:07;14.70;;;6.85;;
75021;SDS011;63583;49.976;20.182;2023-12-28T01:58:33;13.90;;;6.22;;
75021;SDS011;63583;49.976;20.182;2023-12-28T02:01:02;13.48;;;7.13;;
75021;SDS011;63583;49.976;20.182;2023-12-28T02:03:28;14.88;;;6.78;;
75021;SDS011;63583;49.976;20.182;2023-12-28T02:05:54;14.20;;;6.88;;
75021;SDS011;63583;49.976;20.182;2023-12-28T02:08:20;15.23;;;7.32;;
75021;SDS011;63583;49.976;20.182;2023-12-28T02:10:46;15.48;;;7.50;;
75021;SDS011;63583;49.976;20.182;2023-12-28T02:13:12;12.35;;;6.72;;
75021;SDS011;63583;49.976;20.182;2023-12-28T02:15:38;12.07;;;6.57;;
75021;SDS011;63583;49.976;20.182;2023-12-28T02:18:05;13.68;;;6.05;;
75021;SDS011;63583;49.976;20.182;2023-12-28T02:20:37;11.88;;;6.03;;
75021;SDS011;63583;49.976;20.182;2023-12-28T02:23:05;14.85;;;6.35;;
75021;SDS011;63583;49.976;20.182;2023-12-28T02:25:31;10.95;;;5.85;;
75021;SDS011;63583;49.976;20.182;2023-12-28T02:27:57;13.13;;;6.18;;
75021;SDS011;63583;49.976;20.182;2023-12-28T02:30:23;12.88;;;6.05;;
75021;SDS011;63583;49.976;20.182;2023-12-28T02:35:33;13.32;;;5.68;;
75021;SDS011;63583;49.976;20.182;2023-12-28T02:38:08;12.13;;;5.50;;
75021;SDS011;63583;49.976;20.182;2023-12-28T02:40:38;8.52;;;4.72;;
75021;SDS011;63583;49.976;20.182;2023-12-28T02:43:06;10.73;;;5.53;;
75021;SDS011;63583;49.976;20.182;2023-12-28T02:45:32;10.90;;;5.75;;
75021;SDS011;63583;49.976;20.182;2023-12-28T02:47:58;11.95;;;6.20;;
75021;SDS011;63583;49.976;20.182;2023-12-28T02:50:24;9.85;;;5.78;;
75021;SDS011;63583;49.976;20.182;2023-12-28T02:52:50;13.13;;;5.93;;
75021;SDS011;63583;49.976;20.182;2023-12-28T02:55:16;13.73;;;5.63;;
75021;SDS011;63583;49.976;20.182;2023-12-28T02:57:43;10.13;;;5.13;;
75021;SDS011;63583;49.976;20.182;2023-12-28T03:00:09;14.23;;;5.53;;
75021;SDS011;63583;49.976;20.182;2023-12-28T03:02:36;12.00;;;5.53;;
75021;SDS011;63583;49.976;20.182;2023-12-28T03:05:03;10.93;;;5.20;;
75021;SDS011;63583;49.976;20.182;2023-12-28T03:07:31;8.90;;;4.85;;
75021;SDS011;63583;49.976;20.182;2023-12-28T03:09:57;9.73;;;4.75;;
75021;SDS011;63583;49.976;20.182;2023-12-28T03:12:24;10.75;;;5.28;;
75021;SDS011;63583;49.976;20.182;2023-12-28T03:14:50;11.55;;;5.10;;
75021;SDS011;63583;49.976;20.182;2023-12-28T03:17:16;9.30;;;4.85;;
75021;SDS011;63583;49.976;20.182;2023-12-28T03:19:42;11.13;;;5.07;;
75021;SDS011;63583;49.976;20.182;2023-12-28T03:22:08;7.22;;;4.53;;
75021;SDS011;63583;49.976;20.182;2023-12-28T03:24:33;13.35;;;5.63;;
75021;SDS011;63583;49.976;20.182;2023-12-28T03:26:59;10.50;;;5.18;;
75021;SDS011;63583;49.976;20.182;2023-12-28T03:29:25;8.70;;;4.63;;
75021;SDS011;63583;49.976;20.182;2023-12-28T03:31:52;12.80;;;5.78;;
75021;SDS011;63583;49.976;20.182;2023-12-28T03:34:18;9.45;;;4.93;;
75021;SDS011;63583;49.976;20.182;2023-12-28T03:36:44;10.05;;;5.70;;
75021;SDS011;63583;49.976;20.182;2023-12-28T03:39:09;8.95;;;4.43;;
75021;SDS011;63583;49.976;20.182;2023-12-28T03:41:36;12.55;;;5.97;;
75021;SDS011;63583;49.976;20.182;2023-12-28T03:44:02;11.75;;;5.70;;
75021;SDS011;63583;49.976;20.182;2023-12-28T03:46:28;8.77;;;4.55;;
75021;SDS011;63583;49.976;20.182;2023-12-28T03:48:53;7.85;;;3.88;;
75021;SDS011;63583;49.976;20.182;2023-12-28T03:51:19;10.35;;;4.82;;
75021;SDS011;63583;49.976;20.182;2023-12-28T03:53:47;8.77;;;4.43;;
75021;SDS011;63583;49.976;20.182;2023-12-28T03:58:49;8.70;;;4.38;;
75021;SDS011;63583;49.976;20.182;2023-12-28T04:01:18;8.45;;;4.22;;
75021;SDS011;63583;49.976;20.182;2023-12-28T04:03:45;9.23;;;4.60;;
75021;SDS011;63583;49.976;20.182;2023-12-28T04:06:12;11.43;;;5.05;;
75021;SDS011;63583;49.976;20.182;2023-12-28T04:08:38;10.00;;;5.00;;
75021;SDS011;63583;49.976;20.182;2023-12-28T04:11:05;11.73;;;4.88;;
75021;SDS011;63583;49.976;20.182;2023-12-28T04:13:31;8.57;;;4.22;;
75021;SDS011;63583;49.976;20.182;2023-12-28T04:15:57;8.02;;;4.90;;
75021;SDS011;63583;49.976;20.182;2023-12-28T04:18:23;6.63;;;4.22;;
75021;SDS011;63583;49.976;20.182;2023-12-28T04:20:49;9.55;;;4.40;;
75021;SDS011;63583;49.976;20.182;2023-12-28T04:23:15;9.32;;;4.55;;
75021;SDS011;63583;49.976;20.182;2023-12-28T04:25:41;8.13;;;4.75;;
75021;SDS011;63583;49.976;20.182;2023-12-28T04:28:07;10.60;;;5.30;;
75021;SDS011;63583;49.976;20.182;2023-12-28T04:30:33;9.80;;;5.50;;
75021;SDS011;63583;49.976;20.182;2023-12-28T04:32:59;10.55;;;4.53;;
75021;SDS011;63583;49.976;20.182;2023-12-28T04:35:26;8.32;;;4.85;;
75021;SDS011;63583;49.976;20.182;2023-12-28T04:37:51;8.45;;;4.47;;
75021;SDS011;63583;49.976;20.182;2023-12-28T04:40:18;7.28;;;3.75;;
75021;SDS011;63583;49.976;20.182;2023-12-28T04:42:44;6.90;;;3.38;;
75021;SDS011;63583;49.976;20.182;2023-12-28T04:45:10;8.60;;;4.10;;
75021;SDS011;63583;49.976;20.182;2023-12-28T04:47:36;6.90;;;3.85;;
75021;SDS011;63583;49.976;20.182;2023-12-28T04:50:03;7.70;;;3.85;;
75021;SDS011;63583;49.976;20.182;2023-12-28T04:52:30;8.70;;;4.43;;
75021;SDS011;63583;49.976;20.182;2023-12-28T04:54:56;7.18;;;3.42;;
75021;SDS011;63583;49.976;20.182;2023-12-28T04:57:22;6.05;;;3.53;;
75021;SDS011;63583;49.976;20.182;2023-12-28T04:59:53;7.47;;;3.78;;
75021;SDS011;63583;49.976;20.182;2023-12-28T05:02:20;7.65;;;3.70;;
75021;SDS011;63583;49.976;20.182;2023-12-28T05:04:46;7.80;;;4.28;;
75021;SDS011;63583;49.976;20.182;2023-12-28T05:07:11;7.85;;;3.83;;
75021;SDS011;63583;49.976;20.182;2023-12-28T05:09:38;7.75;;;3.83;;
75021;SDS011;63583;49.976;20.182;2023-12-28T05:12:04;10.05;;;5.00;;
75021;SDS011;63583;49.976;20.182;2023-12-28T05:14:30;10.05;;;5.35;;
75021;SDS011;63583;49.976;20.182;2023-12-28T05:16:56;11.45;;;6.10;;
75021;SDS011;63583;49.976;20.182;2023-12-28T05:19:22;21.23;;;10.70;;
75021;SDS011;63583;49.976;20.182;2023-12-28T05:21:47;23.10;;;11.48;;
75021;SDS011;63583;49.976;20.182;2023-12-28T05:24:14;20.98;;;11.13;;
75021;SDS011;63583;49.976;20.182;2023-12-28T05:26:39;15.52;;;7.95;;
75021;SDS011;63583;49.976;20.182;2023-12-28T05:29:05;14.30;;;6.32;;
75021;SDS011;63583;49.976;20.182;2023-12-28T05:31:31;12.60;;;7.25;;
75021;SDS011;63583;49.976;20.182;2023-12-28T05:33:57;15.55;;;8.10;;
75021;SDS011;63583;49.976;20.182;2023-12-28T05:36:24;27.08;;;12.07;;
75021;SDS011;63583;49.976;20.182;2023-12-28T05:38:51;30.05;;;14.98;;
75021;SDS011;63583;49.976;20.182;2023-12-28T05:41:16;30.45;;;12.95;;
75021;SDS011;63583;49.976;20.182;2023-12-28T05:43:42;22.42;;;11.88;;
75021;SDS011;63583;49.976;20.182;2023-12-28T05:46:08;17.58;;;9.90;;
75021;SDS011;63583;49.976;20.182;2023-12-28T05:48:34;12.30;;;6.70;;
75021;SDS011;63583;49.976;20.182;2023-12-28T05:51:00;14.55;;;7.15;;
75021;SDS011;63583;49.976;20.182;2023-12-28T05:53:26;10.52;;;5.43;;
75021;SDS011;63583;49.976;20.182;2023-12-28T05:55:53;8.93;;;4.53;;
75021;SDS011;63583;49.976;20.182;2023-12-28T05:58:19;8.18;;;4.07;;
75021;SDS011;63583;49.976;20.182;2023-12-28T06:00:45;8.90;;;3.72;;
75021;SDS011;63583;49.976;20.182;2023-12-28T06:03:17;7.88;;;3.85;;
75021;SDS011;63583;49.976;20.182;2023-12-28T06:05:43;9.55;;;4.40;;
75021;SDS011;63583;49.976;20.182;2023-12-28T06:08:09;9.63;;;4.55;;
75021;SDS011;63583;49.976;20.182;2023-12-28T06:10:36;6.97;;;3.95;;
75021;SDS011;63583;49.976;20.182;2023-12-28T06:13:02;6.50;;;4.32;;
75021;SDS011;63583;49.976;20.182;2023-12-28T06:15:28;9.00;;;5.00;;
75021;SDS011;63583;49.976;20.182;2023-12-28T06:17:54;10.20;;;5.90;;
75021;SDS011;63583;49.976;20.182;2023-12-28T06:20:19;9.90;;;5.28;;
75021;SDS011;63583;49.976;20.182;2023-12-28T06:22:45;10.35;;;5.22;;
75021;SDS011;63583;49.976;20.182;2023-12-28T06:25:14;10.23;;;4.65;;
75021;SDS011;63583;49.976;20.182;2023-12-28T06:27:40;9.43;;;4.97;;
75021;SDS011;63583;49.976;20.182;2023-12-28T06:30:06;9.25;;;4.78;;
75021;SDS011;63583;49.976;20.182;2023-12-28T06:32:32;11.10;;;5.85;;
75021;SDS011;63583;49.976;20.182;2023-12-28T06:34:58;9.55;;;5.40;;
75021;SDS011;63583;49.976;20.182;2023-12-28T06:37:24;12.52;;;5.90;;
75021;SDS011;63583;49.976;20.182;2023-12-28T06:39:50;10.00;;;5.57;;
75021;SDS011;63583;49.976;20.182;2023-12-28T06:42:16;13.63;;;6.95;;
75021;SDS011;63583;49.976;20.182;2023-12-28T06:44:41;13.48;;;6.82;;
75021;SDS011;63583;49.976;20.182;2023-12-28T06:47:07;13.07;;;6.75;;
75021;SDS011;63583;49.976;20.182;2023-12-28T06:49:33;12.65;;;7.15;;
75021;SDS011;63583;49.976;20.182;2023-12-28T06:51:59;8.52;;;4.32;;
75021;SDS011;63583;49.976;20.182;2023-12-28T06:54:25;7.95;;;4.25;;
75021;SDS011;63583;49.976;20.182;2023-12-28T06:56:51;9.60;;;4.40;;
75021;SDS011;63583;49.976;20.182;2023-12-28T06:59:17;11.45;;;5.43;;
75021;SDS011;63583;49.976;20.182;2023-12-28T07:01:43;10.98;;;5.07;;
75021;SDS011;63583;49.976;20.182;2023-12-28T07:04:13;9.95;;;4.43;;
75021;SDS011;63583;49.976;20.182;2023-12-28T07:06:40;9.10;;;4.50;;
75021;SDS011;63583;49.976;20.182;2023-12-28T07:09:06;9.25;;;4.57;;
75021;SDS011;63583;49.976;20.182;2023-12-28T07:11:32;9.40;;;4.78;;
75021;SDS011;63583;49.976;20.182;2023-12-28T07:13:57;9.95;;;5.13;;
75021;SDS011;63583;49.976;20.182;2023-12-28T07:16:23;10.45;;;5.43;;
75021;SDS011;63583;49.976;20.182;2023-12-28T07:18:49;8.32;;;4.93;;
75021;SDS011;63583;49.976;20.182;2023-12-28T07:21:15;9.13;;;4.75;;
75021;SDS011;63583;49.976;20.182;2023-12-28T07:23:41;6.88;;;4.00;;
75021;SDS011;63583;49.976;20.182;2023-12-28T07:26:07;6.55;;;3.05;;
75021;SDS011;63583;49.976;20.182;2023-12-28T07:28:33;6.10;;;3.35;;
75021;SDS011;63583;49.976;20.182;2023-12-28T07:30:59;8.73;;;3.70;;
75021;SDS011;63583;49.976;20.182;2023-12-28T07:33:25;8.40;;;4.03;;
75021;SDS011;63583;49.976;20.182;2023-12-28T07:35:51;7.80;;;4.45;;
75021;SDS011;63583;49.976;20.182;2023-12-28T07:38:16;8.68;;;4.50;;
75021;SDS011;63583;49.976;20.182;2023-12-28T07:40:42;11.07;;;3.63;;
75021;SDS011;63583;49.976;20.182;2023-12-28T07:43:08;6.13;;;3.10;;
75021;SDS011;63583;49.976;20.182;2023-12-28T07:45:34;33.22;;;14.98;;
75021;SDS011;63583;49.976;20.182;2023-12-28T07:48:04;27.80;;;14.10;;
75021;SDS011;63583;49.976;20.182;2023-12-28T07:50:30;22.23;;;10.02;;
75021;SDS011;63583;49.976;20.182;2023-12-28T07:52:55;9.75;;;6.07;;
75021;SDS011;63583;49.976;20.182;2023-12-28T07:55:21;14.43;;;6.22;;
75021;SDS011;63583;49.976;20.182;2023-12-28T07:57:47;12.45;;;7.47;;
75021;SDS011;63583;49.976;20.182;2023-12-28T08:00:13;12.13;;;6.03;;
75021;SDS011;63583;49.976;20.182;2023-12-28T08:02:40;11.18;;;5.75;;
75021;SDS011;63583;49.976;20.182;2023-12-28T08:05:06;8.57;;;4.88;;
75021;SDS011;63583;49.976;20.182;2023-12-28T08:07:32;24.65;;;14.35;;
75021;SDS011;63583;49.976;20.182;2023-12-28T08:09:58;36.22;;;20.10;;
75021;SDS011;63583;49.976;20.182;2023-12-28T08:12:24;38.70;;;19.70;;
75021;SDS011;63583;49.976;20.182;2023-12-28T08:14:55;35.17;;;19.42;;
75021;SDS011;63583;49.976;20.182;2023-12-28T08:17:24;28.55;;;15.00;;
75021;SDS011;63583;49.976;20.182;2023-12-28T08:19:50;9.23;;;4.75;;
75021;SDS011;63583;49.976;20.182;2023-12-28T08:22:17;6.38;;;3.22;;
75021;SDS011;63583;49.976;20.182;2023-12-28T08:24:44;6.22;;;3.28;;
75021;SDS011;63583;49.976;20.182;2023-12-28T08:27:10;6.75;;;3.00;;
75021;SDS011;63583;49.976;20.182;2023-12-28T08:29:37;6.50;;;3.33;;
75021;SDS011;63583;49.976;20.182;2023-12-28T08:32:05;6.78;;;3.00;;
75021;SDS011;63583;49.976;20.182;2023-12-28T08:34:32;5.68;;;2.92;;
75021;SDS011;63583;49.976;20.182;2023-12-28T08:37:04;5.10;;;3.13;;
75021;SDS011;63583;49.976;20.182;2023-12-28T08:41:56;21.00;;;11.35;;
75021;SDS011;63583;49.976;20.182;2023-12-28T08:44:22;33.25;;;17.35;;
75021;SDS011;63583;49.976;20.182;2023-12-28T08:46:49;28.40;;;14.00;;
75021;SDS011;63583;49.976;20.182;2023-12-28T08:49:17;12.40;;;6.15;;
75021;SDS011;63583;49.976;20.182;2023-12-28T08:51:43;5.63;;;3.30;;
75021;SDS011;63583;49.976;20.182;2023-12-28T08:54:11;6.57;;;3.33;;
75021;SDS011;63583;49.976;20.182;2023-12-28T08:56:37;5.93;;;3.45;;
75021;SDS011;63583;49.976;20.182;2023-12-28T08:59:03;6.55;;;3.30;;
75021;SDS011;63583;49.976;20.182;2023-12-28T09:01:31;6.85;;;3.45;;
75021;SDS011;63583;49.976;20.182;2023-12-28T09:03:58;8.35;;;3.50;;
75021;SDS011;63583;49.976;20.182;2023-12-28T09:06:26;41.58;;;22.02;;
75021;SDS011;63583;49.976;20.182;2023-12-28T09:08:53;52.92;;;26.88;;
75021;SDS011;63583;49.976;20.182;2023-12-28T09:11:21;49.22;;;25.35;;
75021;SDS011;63583;49.976;20.182;2023-12-28T09:13:51;44.65;;;23.42;;
75021;SDS011;63583;49.976;20.182;2023-12-28T09:16:17;40.78;;;21.85;;
75021;SDS011;63583;49.976;20.182;2023-12-28T09:18:43;21.58;;;12.07;;
75021;SDS011;63583;49.976;20.182;2023-12-28T09:21:09;9.00;;;4.70;;
75021;SDS011;63583;49.976;20.182;2023-12-28T09:23:37;7.72;;;3.50;;
75021;SDS011;63583;49.976;20.182;2023-12-28T09:26:04;5.90;;;3.50;;
75021;SDS011;63583;49.976;20.182;2023-12-28T09:28:31;32.03;;;17.55;;
75021;SDS011;63583;49.976;20.182;2023-12-28T09:30:59;44.72;;;23.48;;
75021;SDS011;63583;49.976;20.182;2023-12-28T09:33:27;42.92;;;22.75;;
75021;SDS011;63583;49.976;20.182;2023-12-28T09:35:53;46.42;;;22.67;;
75021;SDS011;63583;49.976;20.182;2023-12-28T09:38:20;26.65;;;15.45;;
75021;SDS011;63583;49.976;20.182;2023-12-28T09:40:53;42.20;;;21.33;;
75021;SDS011;63583;49.976;20.182;2023-12-28T09:43:24;34.58;;;19.60;;
75021;SDS011;63583;49.976;20.182;2023-12-28T09:45:53;35.05;;;19.40;;
75021;SDS011;63583;49.976;20.182;2023-12-28T09:48:20;13.23;;;7.50;;
75021;SDS011;63583;49.976;20.182;2023-12-28T09:50:51;9.93;;;4.22;;
75021;SDS011;63583;49.976;20.182;2023-12-28T09:53:22;6.97;;;3.00;;
75021;SDS011;63583;49.976;20.182;2023-12-28T09:55:48;5.47;;;3.00;;
75021;SDS011;63583;49.976;20.182;2023-12-28T09:58:17;5.35;;;3.22;;
75021;SDS011;63583;49.976;20.182;2023-12-28T10:00:48;6.10;;;3.03;;
75021;SDS011;63583;49.976;20.182;2023-12-28T10:03:15;12.93;;;3.30;;
75021;SDS011;63583;49.976;20.182;2023-12-28T10:05:45;6.45;;;3.30;;
75021;SDS011;63583;49.976;20.182;2023-12-28T10:08:14;6.63;;;3.83;;
75021;SDS011;63583;49.976;20.182;2023-12-28T10:10:41;6.65;;;3.17;;
75021;SDS011;63583;49.976;20.182;2023-12-28T10:13:08;5.57;;;3.20;;
75021;SDS011;63583;49.976;20.182;2023-12-28T10:15:35;4.88;;;2.70;;
75021;SDS011;63583;49.976;20.182;2023-12-28T10:18:04;5.60;;;3.28;;
75021;SDS011;63583;49.976;20.182;2023-12-28T10:20:30;5.00;;;2.83;;
75021;SDS011;63583;49.976;20.182;2023-12-28T10:23:01;4.65;;;2.70;;
75021;SDS011;63583;49.976;20.182;2023-12-28T10:25:28;6.80;;;3.00;;
75021;SDS011;63583;49.976;20.182;2023-12-28T10:28:03;6.07;;;4.03;;
75021;SDS011;63583;49.976;20.182;2023-12-28T10:30:31;4.93;;;3.50;;
75021;SDS011;63583;49.976;20.182;2023-12-28T10:32:57;6.25;;;3.00;;
75021;SDS011;63583;49.976;20.182;2023-12-28T10:35:23;4.68;;;2.92;;
75021;SDS011;63583;49.976;20.182;2023-12-28T10:37:50;6.25;;;3.05;;
75021;SDS011;63583;49.976;20.182;2023-12-28T10:42:49;6.07;;;2.70;;
75021;SDS011;63583;49.976;20.182;2023-12-28T10:48:09;38.30;;;18.55;;
75021;SDS011;63583;49.976;20.182;2023-12-28T10:50:41;38.90;;;21.48;;
75021;SDS011;63583;49.976;20.182;2023-12-28T10:58:58;34.38;;;19.30;;
75021;SDS011;63583;49.976;20.182;2023-12-28T11:01:37;39.97;;;18.67;;
75021;SDS011;63583;49.976;20.182;2023-12-28T11:04:19;33.65;;;18.40;;
75021;SDS011;63583;49.976;20.182;2023-12-28T11:07:09;32.20;;;17.98;;
75021;SDS011;63583;49.976;20.182;2023-12-28T11:09:38;47.22;;;25.65;;
75021;SDS011;63583;49.976;20.182;2023-12-28T11:12:08;45.20;;;22.75;;
75021;SDS011;63583;49.976;20.182;2023-12-28T11:14:39;41.90;;;20.92;;
75021;SDS011;63583;49.976;20.182;2023-12-28T11:17:05;44.53;;;23.52;;
75021;SDS011;63583;49.976;20.182;2023-12-28T11:19:32;38.97;;;23.73;;
75021;SDS011;63583;49.976;20.182;2023-12-28T11:22:01;38.67;;;20.88;;
75021;SDS011;63583;49.976;20.182;2023-12-28T11:24:29;35.47;;;18.33;;
75021;SDS011;63583;49.976;20.182;2023-12-28T11:26:55;28.88;;;16.65;;
75021;SDS011;63583;49.976;20.182;2023-12-28T11:29:23;33.72;;;15.50;;
75021;SDS011;63583;49.976;20.182;2023-12-28T11:31:57;31.98;;;15.60;;
75021;SDS011;63583;49.976;20.182;2023-12-28T11:34:28;25.77;;;13.55;;
75021;SDS011;63583;49.976;20.182;2023-12-28T11:36:55;24.15;;;12.93;;
75021;SDS011;63583;49.976;20.182;2023-12-28T11:39:41;24.17;;;13.45;;
75021;SDS011;63583;49.976;20.182;2023-12-28T11:42:09;24.38;;;13.48;;
75021;SDS011;63583;49.976;20.182;2023-12-28T11:44:39;24.70;;;12.52;;
75021;SDS011;63583;49.976;20.182;2023-12-28T11:47:13;20.88;;;11.93;;
75021;SDS011;63583;49.976;20.182;2023-12-28T11:49:39;19.83;;;11.07;;
75021;SDS011;63583;49.976;20.182;2023-12-28T11:52:06;23.40;;;11.30;;
75021;SDS011;63583;49.976;20.182;2023-12-28T11:54:33;25.55;;;12.75;;
75021;SDS011;63583;49.976;20.182;2023-12-28T11:56:59;24.70;;;13.90;;
75021;SDS011;63583;49.976;20.182;2023-12-28T11:59:25;14.93;;;9.63;;
75021;SDS011;63583;49.976;20.182;2023-12-28T12:01:51;19.70;;;11.23;;
75021;SDS011;63583;49.976;20.182;2023-12-28T12:04:20;22.00;;;12.05;;
75021;SDS011;63583;49.976;20.182;2023-12-28T12:06:47;17.40;;;9.38;;
75021;SDS011;63583;49.976;20.182;2023-12-28T12:09:16;13.23;;;7.43;;
75021;SDS011;63583;49.976;20.182;2023-12-28T12:11:44;16.75;;;7.38;;
75021;SDS011;63583;49.976;20.182;2023-12-28T12:14:10;11.25;;;5.93;;
75021;SDS011;63583;49.976;20.182;2023-12-28T12:16:37;10.20;;;5.32;;
75021;SDS011;63583;49.976;20.182;2023-12-28T12:19:04;7.95;;;4.60;;
75021;SDS011;63583;49.976;20.182;2023-12-28T12:21:30;10.60;;;5.28;;
75021;SDS011;63583;49.976;20.182;2023-12-28T12:23:56;9.68;;;6.20;;
75021;SDS011;63583;49.976;20.182;2023-12-28T12:26:22;8.27;;;4.85;;
75021;SDS011;63583;49.976;20.182;2023-12-28T12:28:48;9.23;;;5.22;;
75021;SDS011;63583;49.976;20.182;2023-12-28T12:31:13;9.80;;;5.35;;
75021;SDS011;63583;49.976;20.182;2023-12-28T12:33:40;10.55;;;4.97;;
75021;SDS011;63583;49.976;20.182;2023-12-28T12:36:07;7.57;;;3.63;;
75021;SDS011;63583;49.976;20.182;2023-12-28T12:38:33;13.38;;;7.63;;
75021;SDS011;63583;49.976;20.182;2023-12-28T12:40:59;6.65;;;4.50;;
75021;SDS011;63583;49.976;20.182;2023-12-28T12:43:25;4.75;;;2.75;;
75021;SDS011;63583;49.976;20.182;2023-12-28T12:45:52;5.68;;;2.40;;
75021;SDS011;63583;49.976;20.182;2023-12-28T12:48:18;4.70;;;2.47;;
75021;SDS011;63583;49.976;20.182;2023-12-28T12:50:44;5.55;;;2.67;;
75021;SDS011;63583;49.976;20.182;2023-12-28T12:53:10;3.97;;;2.28;;
75021;SDS011;63583;49.976;20.182;2023-12-28T12:55:37;5.60;;;2.90;;
75021;SDS011;63583;49.976;20.182;2023-12-28T12:58:10;4.10;;;2.58;;
75021;SDS011;63583;49.976;20.182;2023-12-28T13:00:38;5.95;;;2.80;;
75021;SDS011;63583;49.976;20.182;2023-12-28T13:03:08;6.55;;;2.63;;
75021;SDS011;63583;49.976;20.182;2023-12-28T13:05:37;4.97;;;2.70;;
75021;SDS011;63583;49.976;20.182;2023-12-28T13:08:03;4.07;;;2.50;;
75021;SDS011;63583;49.976;20.182;2023-12-28T13:10:30;6.03;;;2.67;;
75021;SDS011;63583;49.976;20.182;2023-12-28T13:12:56;5.90;;;2.67;;
75021;SDS011;63583;49.976;20.182;2023-12-28T13:15:22;4.85;;;2.03;;
75021;SDS011;63583;49.976;20.182;2023-12-28T13:17:48;5.78;;;2.30;;
75021;SDS011;63583;49.976;20.182;2023-12-28T13:20:14;83.95;;;9.88;;
75021;SDS011;63583;49.976;20.182;2023-12-28T13:22:40;26.08;;;7.65;;
75021;SDS011;63583;49.976;20.182;2023-12-28T13:25:06;13.73;;;7.07;;
75021;SDS011;63583;49.976;20.182;2023-12-28T13:27:32;7.32;;;4.03;;
75021;SDS011;63583;49.976;20.182;2023-12-28T13:29:58;5.55;;;3.55;;
75021;SDS011;63583;49.976;20.182;2023-12-28T13:32:24;12.50;;;6.20;;
75021;SDS011;63583;49.976;20.182;2023-12-28T13:34:50;15.90;;;7.93;;
75021;SDS011;63583;49.976;20.182;2023-12-28T13:37:16;10.45;;;4.57;;
75021;SDS011;63583;49.976;20.182;2023-12-28T13:39:43;14.85;;;8.75;;
75021;SDS011;63583;49.976;20.182;2023-12-28T13:42:09;10.25;;;7.32;;
75021;SDS011;63583;49.976;20.182;2023-12-28T13:44:34;13.65;;;9.40;;
75021;SDS011;63583;49.976;20.182;2023-12-28T13:47:04;11.25;;;7.20;;
75021;SDS011;63583;49.976;20.182;2023-12-28T13:49:31;6.50;;;3.90;;
75021;SDS011;63583;49.976;20.182;2023-12-28T13:51:57;4.97;;;3.47;;
75021;SDS011;63583;49.976;20.182;2023-12-28T13:54:23;6.18;;;4.60;;
75021;SDS011;63583;49.976;20.182;2023-12-28T13:56:49;9.68;;;6.32;;
75021;SDS011;63583;49.976;20.182;2023-12-28T13:59:15;15.65;;;14.07;;
75021;SDS011;63583;49.976;20.182;2023-12-28T14:01:41;31.42;;;22.45;;
75021;SDS011;63583;49.976;20.182;2023-12-28T14:04:07;19.20;;;11.43;;
75021;SDS011;63583;49.976;20.182;2023-12-28T14:06:34;30.40;;;15.90;;
75021;SDS011;63583;49.976;20.182;2023-12-28T14:08:59;16.80;;;7.75;;
75021;SDS011;63583;49.976;20.182;2023-12-28T14:11:25;14.52;;;6.32;;
75021;SDS011;63583;49.976;20.182;2023-12-28T14:13:51;13.63;;;7.60;;
75021;SDS011;63583;49.976;20.182;2023-12-28T14:16:17;8.77;;;5.57;;
75021;SDS011;63583;49.976;20.182;2023-12-28T14:18:43;10.60;;;5.70;;
75021;SDS011;63583;49.976;20.182;2023-12-28T14:21:09;8.75;;;4.93;;
75021;SDS011;63583;49.976;20.182;2023-12-28T14:23:35;6.90;;;3.83;;
75021;SDS011;63583;49.976;20.182;2023-12-28T14:26:20;9.18;;;4.97;;
75021;SDS011;63583;49.976;20.182;2023-12-28T14:28:49;7.15;;;3.80;;
75021;SDS011;63583;49.976;20.182;2023-12-28T14:31:16;6.20;;;3.47;;
75021;SDS011;63583;49.976;20.182;2023-12-28T14:33:42;8.15;;;3.30;;
75021;SDS011;63583;49.976;20.182;2023-12-28T14:38:57;9.35;;;3.95;;
75021;SDS011;63583;49.976;20.182;2023-12-28T14:41:26;28.88;;;14.57;;
75021;SDS011;63583;49.976;20.182;2023-12-28T14:43:53;6.45;;;3.60;;